sensor_id;sensor_type;location;lat;lon;timestamp;temperature;humidity
11989;DHT22;6054;50.966;7.094;2022-10-17T00:01:02;25.00;55.30
11989;DHT22;6054;50.966;7.094;2022-10-17T00:03:29;25.00;55.60
11989;DHT22;6054;50.966;7.094;2022-10-17T00:05:55;25.00;55.60
11989;DHT22;6054;50.966;7.094;2022-10-17T00:08:22;25.10;54.90
11989;DHT22;6054;50.966;7.094;2022-10-17T00:10:57;25.00;55.10
11989;DHT22;6054;50.966;7.094;2022-10-17T00:13:24;25.00;55.70
11989;DHT22;6054;50.966;7.094;2022-10-17T00:15:52;25.20;55.50
11989;DHT22;6054;50.966;7.094;2022-10-17T00:18:19;24.90;55.40
11989;DHT22;6054;50.966;7.094;2022-10-17T00:20:46;25.00;55.60
11989;DHT22;6054;50.966;7.094;2022-10-17T00:23:13;25.00;55.40
11989;DHT22;6054;50.966;7.094;2022-10-17T00:25:40;25.10;55.00
11989;DHT22;6054;50.966;7.094;2022-10-17T00:28:08;25.00;55.20
11989;DHT22;6054;50.966;7.094;2022-10-17T00:30:34;24.90;55.40
11989;DHT22;6054;50.966;7.094;2022-10-17T00:33:03;25.00;55.20
11989;DHT22;6054;50.966;7.094;2022-10-17T00:35:30;24.90;55.00
11989;DHT22;6054;50.966;7.094;2022-10-17T00:37:56;25.10;55.80
11989;DHT22;6054;50.966;7.094;2022-10-17T00:40:24;25.10;55.30
11989;DHT22;6054;50.966;7.094;2022-10-17T00:42:50;24.90;55.60
11989;DHT22;6054;50.966;7.094;2022-10-17T00:45:22;25.10;55.30
11989;DHT22;6054;50.966;7.094;2022-10-17T00:47:53;24.90;55.60
11989;DHT22;6054;50.966;7.094;2022-10-17T00:50:23;24.90;55.70
11989;DHT22;6054;50.966;7.094;2022-10-17T00:52:50;24.90;55.50
11989;DHT22;6054;50.966;7.094;2022-10-17T00:55:20;24.90;55.60
11989;DHT22;6054;50.966;7.094;2022-10-17T00:57:48;24.90;55.80
11989;DHT22;6054;50.966;7.094;2022-10-17T01:00:16;24.90;55.80
11989;DHT22;6054;50.966;7.094;2022-10-17T01:02:43;24.90;55.50
11989;DHT22;6054;50.966;7.094;2022-10-17T01:05:09;24.90;55.40
11989;DHT22;6054;50.966;7.094;2022-10-17T01:07:39;24.90;55.80
11989;DHT22;6054;50.966;7.094;2022-10-17T01:10:07;24.80;55.80
11989;DHT22;6054;50.966;7.094;2022-10-17T01:12:43;24.90;55.90
11989;DHT22;6054;50.966;7.094;2022-10-17T01:15:19;25.10;56.10
11989;DHT22;6054;50.966;7.094;2022-10-17T01:17:55;24.80;55.80
11989;DHT22;6054;50.966;7.094;2022-10-17T01:20:55;24.80;55.80
11989;DHT22;6054;50.966;7.094;2022-10-17T01:23:48;24.80;55.90
11989;DHT22;6054;50.966;7.094;2022-10-17T01:26:24;24.80;55.80
11989;DHT22;6054;50.966;7.094;2022-10-17T01:29:09;24.80;55.60
11989;DHT22;6054;50.966;7.094;2022-10-17T01:31:45;24.80;55.60
11989;DHT22;6054;50.966;7.094;2022-10-17T01:34:17;25.00;55.80
11989;DHT22;6054;50.966;7.094;2022-10-17T01:36:49;25.00;55.80
11989;DHT22;6054;50.966;7.094;2022-10-17T01:39:22;24.80;55.40
11989;DHT22;6054;50.966;7.094;2022-10-17T01:41:55;24.90;55.20
11989;DHT22;6054;50.966;7.094;2022-10-17T01:44:28;24.80;55.40
11989;DHT22;6054;50.966;7.094;2022-10-17T01:47:04;24.70;55.20
11989;DHT22;6054;50.966;7.094;2022-10-17T01:49:33;24.80;54.90
11989;DHT22;6054;50.966;7.094;2022-10-17T01:52:05;24.70;55.00
11989;DHT22;6054;50.966;7.094;2022-10-17T01:54:38;24.60;54.80
11989;DHT22;6054;50.966;7.094;2022-10-17T01:57:09;24.60;55.00
11989;DHT22;6054;50.966;7.094;2022-10-17T01:59:39;24.80;55.00
11989;DHT22;6054;50.966;7.094;2022-10-17T02:02:09;24.80;54.80
11989;DHT22;6054;50.966;7.094;2022-10-17T02:04:37;24.70;54.70
11989;DHT22;6054;50.966;7.094;2022-10-17T02:07:06;24.50;54.60
11989;DHT22;6054;50.966;7.094;2022-10-17T02:09:33;24.70;54.90
11989;DHT22;6054;50.966;7.094;2022-10-17T02:12:12;24.50;54.80
11989;DHT22;6054;50.966;7.094;2022-10-17T02:14:50;24.50;55.00
11989;DHT22;6054;50.966;7.094;2022-10-17T03:32:21;24.30;55.70
11989;DHT22;6054;50.966;7.094;2022-10-17T03:34:48;24.30;55.70
11989;DHT22;6054;50.966;7.094;2022-10-17T03:37:14;24.30;55.40
11989;DHT22;6054;50.966;7.094;2022-10-17T03:39:41;24.40;55.50
11989;DHT22;6054;50.966;7.094;2022-10-17T03:42:08;24.40;55.40
11989;DHT22;6054;50.966;7.094;2022-10-17T03:44:34;24.30;55.30
11989;DHT22;6054;50.966;7.094;2022-10-17T03:47:01;24.60;55.50
11989;DHT22;6054;50.966;7.094;2022-10-17T03:49:29;24.40;55.50
11989;DHT22;6054;50.966;7.094;2022-10-17T03:51:56;24.70;55.70
11989;DHT22;6054;50.966;7.094;2022-10-17T03:54:23;24.40;55.30
11989;DHT22;6054;50.966;7.094;2022-10-17T03:56:50;24.40;55.20
11989;DHT22;6054;50.966;7.094;2022-10-17T03:59:16;24.50;55.30
11989;DHT22;6054;50.966;7.094;2022-10-17T04:01:43;24.40;55.40
11989;DHT22;6054;50.966;7.094;2022-10-17T04:04:10;24.60;55.60
11989;DHT22;6054;50.966;7.094;2022-10-17T04:06:39;24.50;55.60
11989;DHT22;6054;50.966;7.094;2022-10-17T04:09:06;24.40;55.40
11989;DHT22;6054;50.966;7.094;2022-10-17T04:11:33;24.40;55.70
11989;DHT22;6054;50.966;7.094;2022-10-17T04:14:00;24.40;55.50
11989;DHT22;6054;50.966;7.094;2022-10-17T04:16:27;24.30;55.30
11989;DHT22;6054;50.966;7.094;2022-10-17T04:18:56;24.40;55.80
11989;DHT22;6054;50.966;7.094;2022-10-17T04:21:24;24.40;55.70
11989;DHT22;6054;50.966;7.094;2022-10-17T04:23:57;24.40;55.80
11989;DHT22;6054;50.966;7.094;2022-10-17T04:26:24;24.40;55.90
11989;DHT22;6054;50.966;7.094;2022-10-17T04:28:51;24.40;55.50
11989;DHT22;6054;50.966;7.094;2022-10-17T04:31:18;24.30;55.20
11989;DHT22;6054;50.966;7.094;2022-10-17T04:33:46;24.40;55.50
11989;DHT22;6054;50.966;7.094;2022-10-17T04:36:14;24.30;55.60
11989;DHT22;6054;50.966;7.094;2022-10-17T04:38:42;24.30;55.70
11989;DHT22;6054;50.966;7.094;2022-10-17T04:41:11;24.30;55.40
11989;DHT22;6054;50.966;7.094;2022-10-17T04:43:39;24.60;55.90
11989;DHT22;6054;50.966;7.094;2022-10-17T04:46:08;24.30;55.60
11989;DHT22;6054;50.966;7.094;2022-10-17T04:48:35;24.30;55.70
11989;DHT22;6054;50.966;7.094;2022-10-17T04:51:04;24.30;55.30
11989;DHT22;6054;50.966;7.094;2022-10-17T04:53:32;24.30;55.50
11989;DHT22;6054;50.966;7.094;2022-10-17T04:55:59;24.20;55.40
11989;DHT22;6054;50.966;7.094;2022-10-17T04:58:28;24.30;55.50
11989;DHT22;6054;50.966;7.094;2022-10-17T05:00:55;24.30;55.40
11989;DHT22;6054;50.966;7.094;2022-10-17T05:03:22;24.30;55.40
11989;DHT22;6054;50.966;7.094;2022-10-17T05:05:49;24.30;55.30
11989;DHT22;6054;50.966;7.094;2022-10-17T05:08:15;24.30;55.00
11989;DHT22;6054;50.966;7.094;2022-10-17T05:10:43;24.20;55.20
11989;DHT22;6054;50.966;7.094;2022-10-17T05:13:11;24.30;55.80
11989;DHT22;6054;50.966;7.094;2022-10-17T05:15:39;24.30;55.60
11989;DHT22;6054;50.966;7.094;2022-10-17T05:18:06;24.20;55.10
11989;DHT22;6054;50.966;7.094;2022-10-17T05:20:33;24.30;55.30
11989;DHT22;6054;50.966;7.094;2022-10-17T05:23:00;24.20;55.30
11989;DHT22;6054;50.966;7.094;2022-10-17T05:25:27;24.30;55.50
11989;DHT22;6054;50.966;7.094;2022-10-17T05:27:54;24.20;55.10
11989;DHT22;6054;50.966;7.094;2022-10-17T05:30:21;24.20;55.00
11989;DHT22;6054;50.966;7.094;2022-10-17T05:32:52;24.20;55.10
11989;DHT22;6054;50.966;7.094;2022-10-17T05:35:20;24.30;55.50
11989;DHT22;6054;50.966;7.094;2022-10-17T05:37:47;24.30;55.10
11989;DHT22;6054;50.966;7.094;2022-10-17T05:40:14;24.20;55.20
11989;DHT22;6054;50.966;7.094;2022-10-17T05:42:45;24.20;54.90
11989;DHT22;6054;50.966;7.094;2022-10-17T05:45:12;24.20;55.30
11989;DHT22;6054;50.966;7.094;2022-10-17T05:47:39;24.20;55.00
11989;DHT22;6054;50.966;7.094;2022-10-17T05:50:08;24.40;55.10
11989;DHT22;6054;50.966;7.094;2022-10-17T05:52:35;24.20;55.20
11989;DHT22;6054;50.966;7.094;2022-10-17T05:55:02;24.50;55.40
11989;DHT22;6054;50.966;7.094;2022-10-17T05:57:29;24.20;55.50
11989;DHT22;6054;50.966;7.094;2022-10-17T05:59:56;24.20;55.70
11989;DHT22;6054;50.966;7.094;2022-10-17T06:02:22;24.20;55.00
11989;DHT22;6054;50.966;7.094;2022-10-17T06:04:49;24.50;55.20
11989;DHT22;6054;50.966;7.094;2022-10-17T06:07:17;24.20;55.00
11989;DHT22;6054;50.966;7.094;2022-10-17T06:09:44;24.40;55.30
11989;DHT22;6054;50.966;7.094;2022-10-17T06:12:11;24.20;54.70
11989;DHT22;6054;50.966;7.094;2022-10-17T06:14:38;24.20;54.90
11989;DHT22;6054;50.966;7.094;2022-10-17T06:17:04;24.20;54.80
11989;DHT22;6054;50.966;7.094;2022-10-17T06:19:31;24.20;55.00
11989;DHT22;6054;50.966;7.094;2022-10-17T06:21:58;24.30;55.10
11989;DHT22;6054;50.966;7.094;2022-10-17T06:24:26;24.50;54.20
11989;DHT22;6054;50.966;7.094;2022-10-17T06:26:53;24.30;54.80
11989;DHT22;6054;50.966;7.094;2022-10-17T06:29:20;24.30;55.20
11989;DHT22;6054;50.966;7.094;2022-10-17T06:31:46;24.30;54.80
11989;DHT22;6054;50.966;7.094;2022-10-17T06:34:14;24.30;55.00
11989;DHT22;6054;50.966;7.094;2022-10-17T06:36:40;24.30;55.20
11989;DHT22;6054;50.966;7.094;2022-10-17T06:39:07;24.30;55.10
11989;DHT22;6054;50.966;7.094;2022-10-17T06:41:35;24.50;55.30
11989;DHT22;6054;50.966;7.094;2022-10-17T06:44:02;24.40;55.10
11989;DHT22;6054;50.966;7.094;2022-10-17T06:46:35;24.30;54.80
11989;DHT22;6054;50.966;7.094;2022-10-17T06:49:02;24.40;55.30
11989;DHT22;6054;50.966;7.094;2022-10-17T06:51:30;24.70;55.40
11989;DHT22;6054;50.966;7.094;2022-10-17T06:53:57;24.50;55.30
11989;DHT22;6054;50.966;7.094;2022-10-17T06:56:24;24.50;55.00
11989;DHT22;6054;50.966;7.094;2022-10-17T06:58:52;24.50;55.00
11989;DHT22;6054;50.966;7.094;2022-10-17T07:01:19;24.40;54.40
11989;DHT22;6054;50.966;7.094;2022-10-17T07:03:47;24.40;54.90
11989;DHT22;6054;50.966;7.094;2022-10-17T07:06:14;24.50;55.40
11989;DHT22;6054;50.966;7.094;2022-10-17T07:08:42;24.50;54.90
11989;DHT22;6054;50.966;7.094;2022-10-17T07:11:11;24.50;55.10
11989;DHT22;6054;50.966;7.094;2022-10-17T07:13:38;24.50;55.20
11989;DHT22;6054;50.966;7.094;2022-10-17T07:16:07;24.50;54.90
11989;DHT22;6054;50.966;7.094;2022-10-17T07:18:34;24.50;55.10
11989;DHT22;6054;50.966;7.094;2022-10-17T07:21:01;24.50;54.30
11989;DHT22;6054;50.966;7.094;2022-10-17T07:23:28;24.50;54.60
11989;DHT22;6054;50.966;7.094;2022-10-17T07:25:59;24.60;55.00
11989;DHT22;6054;50.966;7.094;2022-10-17T07:28:27;24.60;55.00
11989;DHT22;6054;50.966;7.094;2022-10-17T07:30:54;24.70;55.00
11989;DHT22;6054;50.966;7.094;2022-10-17T07:33:22;24.70;54.80
11989;DHT22;6054;50.966;7.094;2022-10-17T07:35:48;24.80;54.50
11989;DHT22;6054;50.966;7.094;2022-10-17T07:38:17;25.10;54.70
11989;DHT22;6054;50.966;7.094;2022-10-17T07:40:43;24.90;54.40
11989;DHT22;6054;50.966;7.094;2022-10-17T07:43:10;24.90;54.00
11989;DHT22;6054;50.966;7.094;2022-10-17T07:45:37;24.90;53.90
11989;DHT22;6054;50.966;7.094;2022-10-17T07:48:06;25.00;54.10
11989;DHT22;6054;50.966;7.094;2022-10-17T07:50:34;25.00;53.60
11989;DHT22;6054;50.966;7.094;2022-10-17T07:53:01;25.00;53.70
11989;DHT22;6054;50.966;7.094;2022-10-17T07:55:27;25.10;54.00
11989;DHT22;6054;50.966;7.094;2022-10-17T07:57:55;25.10;53.90
11989;DHT22;6054;50.966;7.094;2022-10-17T08:00:22;25.20;54.20
11989;DHT22;6054;50.966;7.094;2022-10-17T08:02:49;25.50;53.60
11989;DHT22;6054;50.966;7.094;2022-10-17T08:05:15;25.30;53.60
11989;DHT22;6054;50.966;7.094;2022-10-17T08:07:45;25.30;53.80
11989;DHT22;6054;50.966;7.094;2022-10-17T08:10:12;25.40;53.60
11989;DHT22;6054;50.966;7.094;2022-10-17T08:12:40;25.40;53.80
11989;DHT22;6054;50.966;7.094;2022-10-17T08:15:08;25.50;53.50
11989;DHT22;6054;50.966;7.094;2022-10-17T08:17:36;25.50;53.70
11989;DHT22;6054;50.966;7.094;2022-10-17T08:20:04;25.50;53.70
11989;DHT22;6054;50.966;7.094;2022-10-17T08:22:31;25.60;53.70
11989;DHT22;6054;50.966;7.094;2022-10-17T08:24:59;25.60;53.40
11989;DHT22;6054;50.966;7.094;2022-10-17T08:27:26;25.70;53.30
11989;DHT22;6054;50.966;7.094;2022-10-17T08:29:53;25.60;53.00
11989;DHT22;6054;50.966;7.094;2022-10-17T08:32:21;25.80;53.30
11989;DHT22;6054;50.966;7.094;2022-10-17T08:34:50;25.70;53.90
11989;DHT22;6054;50.966;7.094;2022-10-17T08:37:17;25.90;53.00
11989;DHT22;6054;50.966;7.094;2022-10-17T08:39:43;25.90;52.50
11989;DHT22;6054;50.966;7.094;2022-10-17T08:42:27;25.60;52.70
11989;DHT22;6054;50.966;7.094;2022-10-17T08:45:01;25.60;53.30
11989;DHT22;6054;50.966;7.094;2022-10-17T08:47:35;25.80;54.20
11989;DHT22;6054;50.966;7.094;2022-10-17T08:50:06;25.80;53.20
11989;DHT22;6054;50.966;7.094;2022-10-17T08:52:35;25.70;53.30
11989;DHT22;6054;50.966;7.094;2022-10-17T08:55:12;25.70;53.10
11989;DHT22;6054;50.966;7.094;2022-10-17T08:57:41;25.80;53.50
11989;DHT22;6054;50.966;7.094;2022-10-17T09:00:16;25.90;53.10
11989;DHT22;6054;50.966;7.094;2022-10-17T09:02:51;25.80;53.00
11989;DHT22;6054;50.966;7.094;2022-10-17T09:05:28;25.90;53.30
11989;DHT22;6054;50.966;7.094;2022-10-17T09:08:07;25.90;53.20
11989;DHT22;6054;50.966;7.094;2022-10-17T09:10:45;26.20;53.40
11989;DHT22;6054;50.966;7.094;2022-10-17T09:13:36;26.20;53.30
11989;DHT22;6054;50.966;7.094;2022-10-17T09:16:19;26.00;53.10
11989;DHT22;6054;50.966;7.094;2022-10-17T09:18:56;26.10;53.30
11989;DHT22;6054;50.966;7.094;2022-10-17T09:21:30;26.10;53.30
11989;DHT22;6054;50.966;7.094;2022-10-17T09:24:01;26.20;53.30
11989;DHT22;6054;50.966;7.094;2022-10-17T09:26:29;26.30;53.10
11989;DHT22;6054;50.966;7.094;2022-10-17T09:29:00;26.30;52.50
11989;DHT22;6054;50.966;7.094;2022-10-17T09:31:31;26.50;52.80
11989;DHT22;6054;50.966;7.094;2022-10-17T09:34:01;26.30;52.80
11989;DHT22;6054;50.966;7.094;2022-10-17T09:36:31;26.60;52.90
11989;DHT22;6054;50.966;7.094;2022-10-17T09:39:00;26.40;52.80
11989;DHT22;6054;50.966;7.094;2022-10-17T09:41:33;26.40;52.60
11989;DHT22;6054;50.966;7.094;2022-10-17T09:44:17;26.40;52.80
11989;DHT22;6054;50.966;7.094;2022-10-17T09:49:36;26.50;52.90
11989;DHT22;6054;50.966;7.094;2022-10-17T09:52:05;26.50;52.50
11989;DHT22;6054;50.966;7.094;2022-10-17T09:54:40;26.50;52.60
11989;DHT22;6054;50.966;7.094;2022-10-17T09:57:09;26.50;52.60
11989;DHT22;6054;50.966;7.094;2022-10-17T09:59:40;26.60;52.60
11989;DHT22;6054;50.966;7.094;2022-10-17T10:02:13;26.60;52.50
11989;DHT22;6054;50.966;7.094;2022-10-17T10:04:52;26.60;52.70
11989;DHT22;6054;50.966;7.094;2022-10-17T10:07:20;26.60;52.60
11989;DHT22;6054;50.966;7.094;2022-10-17T10:09:47;26.70;52.50
11989;DHT22;6054;50.966;7.094;2022-10-17T10:12:18;26.70;52.90
11989;DHT22;6054;50.966;7.094;2022-10-17T10:14:46;26.70;52.90
11989;DHT22;6054;50.966;7.094;2022-10-17T10:17:32;26.80;52.90
11989;DHT22;6054;50.966;7.094;2022-10-17T10:20:01;26.90;53.20
11989;DHT22;6054;50.966;7.094;2022-10-17T10:22:27;27.20;52.80
11989;DHT22;6054;50.966;7.094;2022-10-17T10:25:09;27.20;52.30
11989;DHT22;6054;50.966;7.094;2022-10-17T10:27:39;27.10;52.30
11989;DHT22;6054;50.966;7.094;2022-10-17T10:30:17;27.40;52.20
11989;DHT22;6054;50.966;7.094;2022-10-17T10:32:46;27.20;52.00
11989;DHT22;6054;50.966;7.094;2022-10-17T10:35:19;27.50;52.00
11989;DHT22;6054;50.966;7.094;2022-10-17T10:37:48;27.30;51.70
11989;DHT22;6054;50.966;7.094;2022-10-17T10:40:18;27.30;51.80
11989;DHT22;6054;50.966;7.094;2022-10-17T10:42:46;27.40;51.80
11989;DHT22;6054;50.966;7.094;2022-10-17T10:45:17;27.60;51.70
11989;DHT22;6054;50.966;7.094;2022-10-17T10:47:50;27.40;51.70
11989;DHT22;6054;50.966;7.094;2022-10-17T10:50:29;27.50;51.60
11989;DHT22;6054;50.966;7.094;2022-10-17T10:53:11;27.40;51.70
11989;DHT22;6054;50.966;7.094;2022-10-17T10:55:43;27.40;51.70
11989;DHT22;6054;50.966;7.094;2022-10-17T10:58:23;27.60;51.70
11989;DHT22;6054;50.966;7.094;2022-10-17T11:00:54;27.40;51.50
11989;DHT22;6054;50.966;7.094;2022-10-17T11:03:26;27.70;52.20
11989;DHT22;6054;50.966;7.094;2022-10-17T11:05:59;27.60;51.60
11989;DHT22;6054;50.966;7.094;2022-10-17T11:08:32;27.60;51.70
11989;DHT22;6054;50.966;7.094;2022-10-17T11:11:08;27.50;51.60
11989;DHT22;6054;50.966;7.094;2022-10-17T11:13:42;27.50;51.60
11989;DHT22;6054;50.966;7.094;2022-10-17T11:16:19;27.50;51.40
11989;DHT22;6054;50.966;7.094;2022-10-17T11:18:51;27.50;51.40
11989;DHT22;6054;50.966;7.094;2022-10-17T11:21:22;27.60;51.40
11989;DHT22;6054;50.966;7.094;2022-10-17T11:23:59;27.50;51.40
11989;DHT22;6054;50.966;7.094;2022-10-17T11:26:31;27.50;51.60
11989;DHT22;6054;50.966;7.094;2022-10-17T11:29:03;27.50;51.40
11989;DHT22;6054;50.966;7.094;2022-10-17T11:31:36;27.50;51.60
11989;DHT22;6054;50.966;7.094;2022-10-17T11:34:08;27.50;51.70
11989;DHT22;6054;50.966;7.094;2022-10-17T11:36:39;27.50;51.80
11989;DHT22;6054;50.966;7.094;2022-10-17T11:39:13;27.50;51.60
11989;DHT22;6054;50.966;7.094;2022-10-17T11:41:45;27.70;51.80
11989;DHT22;6054;50.966;7.094;2022-10-17T11:44:19;27.70;51.70
11989;DHT22;6054;50.966;7.094;2022-10-17T11:46:53;27.60;51.90
11989;DHT22;6054;50.966;7.094;2022-10-17T11:49:24;27.60;51.70
11989;DHT22;6054;50.966;7.094;2022-10-17T11:51:59;27.60;51.70
11989;DHT22;6054;50.966;7.094;2022-10-17T11:54:34;27.60;51.90
11989;DHT22;6054;50.966;7.094;2022-10-17T11:57:16;27.60;51.90
11989;DHT22;6054;50.966;7.094;2022-10-17T11:59:54;27.60;51.90
11989;DHT22;6054;50.966;7.094;2022-10-17T12:02:31;27.70;52.00
11989;DHT22;6054;50.966;7.094;2022-10-17T12:05:08;27.90;52.10
11989;DHT22;6054;50.966;7.094;2022-10-17T12:07:41;27.70;52.00
11989;DHT22;6054;50.966;7.094;2022-10-17T12:10:26;27.70;52.00
11989;DHT22;6054;50.966;7.094;2022-10-17T12:12:54;27.70;52.20
11989;DHT22;6054;50.966;7.094;2022-10-17T12:15:29;28.00;51.90
11989;DHT22;6054;50.966;7.094;2022-10-17T12:17:59;27.90;52.10
11989;DHT22;6054;50.966;7.094;2022-10-17T12:20:32;27.80;51.90
11989;DHT22;6054;50.966;7.094;2022-10-17T12:23:16;27.80;52.00
11989;DHT22;6054;50.966;7.094;2022-10-17T12:25:50;27.80;52.00
11989;DHT22;6054;50.966;7.094;2022-10-17T12:28:25;27.80;51.90
11989;DHT22;6054;50.966;7.094;2022-10-17T12:30:58;27.90;52.30
11989;DHT22;6054;50.966;7.094;2022-10-17T12:33:31;27.90;52.40
11989;DHT22;6054;50.966;7.094;2022-10-17T12:36:35;28.00;52.30
11989;DHT22;6054;50.966;7.094;2022-10-17T12:42:29;28.00;52.90
11989;DHT22;6054;50.966;7.094;2022-10-17T12:44:56;27.90;53.00
11989;DHT22;6054;50.966;7.094;2022-10-17T12:47:37;27.90;52.70
11989;DHT22;6054;50.966;7.094;2022-10-17T12:53:05;28.00;53.30
11989;DHT22;6054;50.966;7.094;2022-10-17T12:55:33;27.90;53.20
11989;DHT22;6054;50.966;7.094;2022-10-17T12:58:02;28.00;53.30
11989;DHT22;6054;50.966;7.094;2022-10-17T13:00:33;28.10;53.30
11989;DHT22;6054;50.966;7.094;2022-10-17T13:03:09;28.10;53.30
11989;DHT22;6054;50.966;7.094;2022-10-17T13:05:41;28.00;53.30
11989;DHT22;6054;50.966;7.094;2022-10-17T13:08:15;28.20;53.60
11989;DHT22;6054;50.966;7.094;2022-10-17T13:10:46;28.00;53.20
11989;DHT22;6054;50.966;7.094;2022-10-17T13:13:17;28.30;53.60
11989;DHT22;6054;50.966;7.094;2022-10-17T13:15:46;28.10;53.70
11989;DHT22;6054;50.966;7.094;2022-10-17T13:18:19;28.10;53.90
11989;DHT22;6054;50.966;7.094;2022-10-17T13:20:54;28.40;54.20
11989;DHT22;6054;50.966;7.094;2022-10-17T13:23:24;28.30;54.30
11989;DHT22;6054;50.966;7.094;2022-10-17T13:26:12;28.20;54.00
11989;DHT22;6054;50.966;7.094;2022-10-17T13:28:40;28.10;54.00
11989;DHT22;6054;50.966;7.094;2022-10-17T13:31:29;28.10;53.80
11989;DHT22;6054;50.966;7.094;2022-10-17T13:33:57;28.10;54.20
11989;DHT22;6054;50.966;7.094;2022-10-17T13:36:25;28.20;54.20
11989;DHT22;6054;50.966;7.094;2022-10-17T13:38:54;28.10;54.20
11989;DHT22;6054;50.966;7.094;2022-10-17T13:41:24;28.10;54.10
11989;DHT22;6054;50.966;7.094;2022-10-17T13:43:53;28.30;54.30
11989;DHT22;6054;50.966;7.094;2022-10-17T13:46:26;28.10;54.40
11989;DHT22;6054;50.966;7.094;2022-10-17T13:48:55;28.10;54.50
11989;DHT22;6054;50.966;7.094;2022-10-17T13:51:23;28.10;54.30
11989;DHT22;6054;50.966;7.094;2022-10-17T13:53:50;28.10;54.40
11989;DHT22;6054;50.966;7.094;2022-10-17T13:56:21;28.10;53.90
11989;DHT22;6054;50.966;7.094;2022-10-17T13:58:50;28.10;54.90
11989;DHT22;6054;50.966;7.094;2022-10-17T14:01:18;28.10;55.00
11989;DHT22;6054;50.966;7.094;2022-10-17T14:03:47;28.20;55.20
11989;DHT22;6054;50.966;7.094;2022-10-17T14:06:16;28.40;55.20
11989;DHT22;6054;50.966;7.094;2022-10-17T14:08:51;28.30;55.40
11989;DHT22;6054;50.966;7.094;2022-10-17T14:11:26;28.10;55.30
11989;DHT22;6054;50.966;7.094;2022-10-17T14:13:55;28.10;55.20
11989;DHT22;6054;50.966;7.094;2022-10-17T14:18:49;28.20;55.70
11989;DHT22;6054;50.966;7.094;2022-10-17T14:21:19;28.20;55.40
11989;DHT22;6054;50.966;7.094;2022-10-17T14:23:46;28.40;55.70
11989;DHT22;6054;50.966;7.094;2022-10-17T14:26:16;28.30;55.30
11989;DHT22;6054;50.966;7.094;2022-10-17T14:28:46;28.30;55.30
11989;DHT22;6054;50.966;7.094;2022-10-17T14:31:28;28.20;55.50
11989;DHT22;6054;50.966;7.094;2022-10-17T14:33:55;28.30;55.60
11989;DHT22;6054;50.966;7.094;2022-10-17T14:36:31;28.40;55.50
11989;DHT22;6054;50.966;7.094;2022-10-17T14:38:59;28.30;55.30
11989;DHT22;6054;50.966;7.094;2022-10-17T14:41:28;28.30;54.80
11989;DHT22;6054;50.966;7.094;2022-10-17T14:43:59;28.50;55.20
11989;DHT22;6054;50.966;7.094;2022-10-17T14:46:27;28.30;55.40
11989;DHT22;6054;50.966;7.094;2022-10-17T14:48:56;28.40;55.50
11989;DHT22;6054;50.966;7.094;2022-10-17T14:51:23;28.50;55.60
11989;DHT22;6054;50.966;7.094;2022-10-17T14:54:02;28.30;55.10
11989;DHT22;6054;50.966;7.094;2022-10-17T14:56:36;28.50;55.40
11989;DHT22;6054;50.966;7.094;2022-10-17T14:59:04;28.30;55.30
11989;DHT22;6054;50.966;7.094;2022-10-17T15:01:32;28.40;55.00
11989;DHT22;6054;50.966;7.094;2022-10-17T15:03:59;28.30;55.10
11989;DHT22;6054;50.966;7.094;2022-10-17T15:06:27;28.30;54.30
11989;DHT22;6054;50.966;7.094;2022-10-17T15:08:55;28.40;54.80
11989;DHT22;6054;50.966;7.094;2022-10-17T15:11:22;28.30;54.30
11989;DHT22;6054;50.966;7.094;2022-10-17T15:13:48;28.20;54.00
11989;DHT22;6054;50.966;7.094;2022-10-17T15:16:18;28.20;53.90
11989;DHT22;6054;50.966;7.094;2022-10-17T15:18:45;28.40;54.30
11989;DHT22;6054;50.966;7.094;2022-10-17T15:21:13;28.30;53.60
11989;DHT22;6054;50.966;7.094;2022-10-17T15:23:41;28.10;54.20
11989;DHT22;6054;50.966;7.094;2022-10-17T15:26:13;28.40;54.00
11989;DHT22;6054;50.966;7.094;2022-10-17T15:28:40;28.30;54.30
11989;DHT22;6054;50.966;7.094;2022-10-17T15:31:12;28.40;54.10
11989;DHT22;6054;50.966;7.094;2022-10-17T15:33:41;28.10;53.90
11989;DHT22;6054;50.966;7.094;2022-10-17T15:36:19;28.20;53.80
11989;DHT22;6054;50.966;7.094;2022-10-17T15:38:46;28.20;53.90
11989;DHT22;6054;50.966;7.094;2022-10-17T15:41:13;28.40;53.60
11989;DHT22;6054;50.966;7.094;2022-10-17T15:43:40;28.10;53.40
11989;DHT22;6054;50.966;7.094;2022-10-17T15:46:11;28.20;53.40
11989;DHT22;6054;50.966;7.094;2022-10-17T15:48:38;28.10;53.90
11989;DHT22;6054;50.966;7.094;2022-10-17T15:51:07;28.40;53.60
11989;DHT22;6054;50.966;7.094;2022-10-17T15:53:34;28.10;53.80
11989;DHT22;6054;50.966;7.094;2022-10-17T15:56:02;28.10;53.60
11989;DHT22;6054;50.966;7.094;2022-10-17T15:58:33;28.10;53.00
11989;DHT22;6054;50.966;7.094;2022-10-17T16:01:00;28.30;54.10
11989;DHT22;6054;50.966;7.094;2022-10-17T16:03:27;28.10;53.60
11989;DHT22;6054;50.966;7.094;2022-10-17T16:05:54;28.20;53.20
11989;DHT22;6054;50.966;7.094;2022-10-17T16:08:23;28.00;53.50
11989;DHT22;6054;50.966;7.094;2022-10-17T16:10:50;28.00;53.70
11989;DHT22;6054;50.966;7.094;2022-10-17T16:13:18;28.00;53.40
11989;DHT22;6054;50.966;7.094;2022-10-17T16:15:46;28.00;53.60
11989;DHT22;6054;50.966;7.094;2022-10-17T16:18:13;27.90;52.50
11989;DHT22;6054;50.966;7.094;2022-10-17T16:20:40;28.10;52.00
11989;DHT22;6054;50.966;7.094;2022-10-17T16:23:07;28.00;51.60
11989;DHT22;6054;50.966;7.094;2022-10-17T16:25:35;28.20;51.40
11989;DHT22;6054;50.966;7.094;2022-10-17T16:28:01;28.20;51.30
11989;DHT22;6054;50.966;7.094;2022-10-17T16:30:30;27.90;51.00
11989;DHT22;6054;50.966;7.094;2022-10-17T16:32:57;27.90;51.00
11989;DHT22;6054;50.966;7.094;2022-10-17T16:35:25;27.90;50.00
11989;DHT22;6054;50.966;7.094;2022-10-17T16:37:53;27.80;51.60
11989;DHT22;6054;50.966;7.094;2022-10-17T16:40:20;27.80;51.10
11989;DHT22;6054;50.966;7.094;2022-10-17T16:42:49;27.80;50.80
11989;DHT22;6054;50.966;7.094;2022-10-17T16:45:17;27.70;51.20
11989;DHT22;6054;50.966;7.094;2022-10-17T16:47:45;27.70;51.60
11989;DHT22;6054;50.966;7.094;2022-10-17T16:50:12;27.90;52.00
11989;DHT22;6054;50.966;7.094;2022-10-17T16:52:39;27.70;51.60
11989;DHT22;6054;50.966;7.094;2022-10-17T16:55:07;27.60;51.70
11989;DHT22;6054;50.966;7.094;2022-10-17T16:57:34;27.60;52.30
11989;DHT22;6054;50.966;7.094;2022-10-17T17:00:03;27.70;52.20
11989;DHT22;6054;50.966;7.094;2022-10-17T17:02:30;27.60;52.60
11989;DHT22;6054;50.966;7.094;2022-10-17T17:04:57;27.60;52.30
11989;DHT22;6054;50.966;7.094;2022-10-17T17:07:24;27.50;52.20
11989;DHT22;6054;50.966;7.094;2022-10-17T17:09:51;27.50;52.20
11989;DHT22;6054;50.966;7.094;2022-10-17T17:12:18;27.70;52.50
11989;DHT22;6054;50.966;7.094;2022-10-17T17:14:45;27.30;51.50
11989;DHT22;6054;50.966;7.094;2022-10-17T17:17:13;27.70;51.50
11989;DHT22;6054;50.966;7.094;2022-10-17T17:19:40;27.40;52.30
11989;DHT22;6054;50.966;7.094;2022-10-17T17:22:06;27.40;52.50
11989;DHT22;6054;50.966;7.094;2022-10-17T17:24:33;27.40;53.00
11989;DHT22;6054;50.966;7.094;2022-10-17T17:27:00;27.40;53.40
11989;DHT22;6054;50.966;7.094;2022-10-17T17:29:27;27.60;53.50